Sawyer International Airport Marquette US
ICAO: KSAW
IATA: SAW
Category: Medium
Scheduled Services: No

Elevation: 1221 ft
TransAlt. 18000 ft.

Airport Communications:
AWOS 3:118.375
MINNEAPOLIS CNTR:119.1
CTAF:119.975
GND:121.65
GREEN BAY RDO:123.6
TWR:119.975
UNICOM:122.7

KSAW Zoom In..

If you have problems with the map follow the link
https://www.worldairports.se/pages/airport.php?
ICAO=KSAW

Runways:

(A) RW 01 length 12366 ft width 150 ft
ILS 110.10 / hdg 13

(B) RW 19 length 12366 ft width 150 ft
---- / hdg 193

Location; KSAW
Day. 14 / Time. 15.45 Zulu
* Altimeter: 29.65
* Temperature: -03° c. -26.6°f.
* Wind from: 330° Speed 07 kn.
Dewpoint: -04° c.
Visibility: 10 Statute Miles.
Clouds: Overcast 1700 ft.

KSAW 141545Z 33007KT 10SM OVC017 M03/M04 A2965


Wind From 330°
Speed 07 kn.

 
 
jpsmedia worldairports.se 2019   terms of use